MSC Kwangyang — D5NP6 — position and weather

sailwx.info

Track history (hours):
 
Tides and Currents Weather Stations Pressure Air Temp Water Temp Dewpoint Dewpoint Depression Visibility Wind Speed Wind Dir Waves Ship Positions

MSC Kwangyang

Last reported at 2017-Oct-18 22:24 UTC. Time now 2017-Oct-18 22:41 UTC.
Position N 38°27' E 015°54'.

Length 304 m; draft 10.9 m.

Type: Ship (hazmat cat A). MMSI: 636017973.

Date/timePositionNaut miles runAvg speedWind from/ knotsBaromVisibWave heightAir tempDewpointWater temp
2017-Oct-18 22:24N 38°27' E 015°54'0 0.0
2017-Oct-18 21:12N 38°27' E 015°54'0 0.0
2017-Oct-18 21:00N 38°27' E 015°54'0 0.0
2017-Oct-18 20:30N 38°27' E 015°54'0 0.0
2017-Oct-18 20:00N 38°27' E 015°54'0 0.0
2017-Oct-18 18:00N 38°27' E 015°54'0 0.0
2017-Oct-18 17:30N 38°27' E 015°54'0 0.0
2017-Oct-18 17:00N 38°27' E 015°54'0 0.0
2017-Oct-18 16:30N 38°27' E 015°54'0 0.0
2017-Oct-18 15:06N 38°27' E 015°54'0 0.0
2017-Oct-18 15:00N 38°27' E 015°54'0 0.0
2017-Oct-18 12:42N 38°27' E 015°54'0 0.1
2017-Oct-18 12:30N 38°27' E 015°54'1 1.9
2017-Oct-18 11:59N 38°27' E 015°53'2 3.4
2017-Oct-18 11:28N 38°27' E 015°51'0 0.8
2017-Oct-18 11:00N 38°27' E 015°50'4 7.4
2017-Oct-18 10:29N 38°31' E 015°48'2 0.6
2017-Oct-18 07:22N 38°29' E 015°46'1 1.4
2017-Oct-18 06:58N 38°29' E 015°47'2 4.9
2017-Oct-18 06:30N 38°28' E 015°50'3 5.0
2017-Oct-18 05:57N 38°27' E 015°53'2 4.0
2017-Oct-18 05:29N 38°27' E 015°51'0 0.1
2017-Oct-18 05:00N 38°27' E 015°51'0 0.2
2017-Oct-18 04:30N 38°27' E 015°51'1 1.2
2017-Oct-18 04:00N 38°28' E 015°50'3 5.6
2017-Oct-18 03:30N 38°29' E 015°47'0 0.3
2017-Oct-18 03:00N 38°29' E 015°47'0 0.2
2017-Oct-18 02:30N 38°29' E 015°47'1 2.5
2017-Oct-18 02:00N 38°30' E 015°45'5 9.9
2017-Oct-18 01:30N 38°32' E 015°40'3 6.1
2017-Oct-18 01:00N 38°33' E 015°36'0 0.5
2017-Oct-18 00:30N 38°33' E 015°36'0 0.6
2017-Oct-18 00:00N 38°33' E 015°37'0 0.5
2017-Oct-17 23:29N 38°33' E 015°37'0 0.4
2017-Oct-17 23:00N 38°32' E 015°37'0 0.3
2017-Oct-17 22:30N 38°32' E 015°37'0 0.2
2017-Oct-17 22:00N 38°32' E 015°37'0 0.1
2017-Oct-17 21:30N 38°32' E 015°37'0 0.1
2017-Oct-17 20:58N 38°32' E 015°38'0 0.1
2017-Oct-17 20:25N 38°32' E 015°38'0 0.1
2017-Oct-17 20:00N 38°32' E 015°38'0 0.2
2017-Oct-17 19:30N 38°32' E 015°38'0 0.1
2017-Oct-17 19:00N 38°32' E 015°38'0 0.1
2017-Oct-17 18:27N 38°32' E 015°38'0 0.1
2017-Oct-17 18:00N 38°33' E 015°38'0 0.1
2017-Oct-17 17:30N 38°33' E 015°38'0 0.1
2017-Oct-17 16:59N 38°33' E 015°38'0 0.2
2017-Oct-17 16:30N 38°33' E 015°37'0 0.3
2017-Oct-17 16:00N 38°33' E 015°37'0 0.2
2017-Oct-17 15:30N 38°33' E 015°37'0 0.2
2017-Oct-17 14:58N 38°33' E 015°37'0 0.2
2017-Oct-17 14:30N 38°33' E 015°37'0 0.2
2017-Oct-17 14:00N 38°33' E 015°37'0 0.2
2017-Oct-17 13:30N 38°33' E 015°37'0 0.2
2017-Oct-17 12:57N 38°33' E 015°37'0 0.2
2017-Oct-17 12:13N 38°33' E 015°37'0 0.3
2017-Oct-17 11:58N 38°33' E 015°37'0 0.3
2017-Oct-17 11:27N 38°33' E 015°37'0 0.4
2017-Oct-17 10:54N 38°33' E 015°37'0 0.4
2017-Oct-17 10:28N 38°33' E 015°37'0 0.4
2017-Oct-17 09:55N 38°33' E 015°38'0 0.3
2017-Oct-17 09:28N 38°32' E 015°38'0 0.3
2017-Oct-17 09:00N 38°32' E 015°38'0 0.3
2017-Oct-17 08:30N 38°32' E 015°38'0 0.3
2017-Oct-17 07:59N 38°32' E 015°38'0 0.3
2017-Oct-17 07:18N 38°32' E 015°39'0 0.4
2017-Oct-17 06:52N 38°32' E 015°39'0 0.4
2017-Oct-17 06:28N 38°32' E 015°39'0 0.4
2017-Oct-17 06:00N 38°32' E 015°39'0 0.4
2017-Oct-17 05:22N 38°32' E 015°39'0 0.4
2017-Oct-17 04:52N 38°32' E 015°40'0 0.4
2017-Oct-17 04:23N 38°32' E 015°40'0 0.5
2017-Oct-17 04:00N 38°33' E 015°40'0 0.5
2017-Oct-17 03:30N 38°33' E 015°41'0 0.5
2017-Oct-17 02:55N 38°33' E 015°41'0 0.4
2017-Oct-17 02:26N 38°33' E 015°41'0 0.4
2017-Oct-17 01:56N 38°33' E 015°41'0 0.3
2017-Oct-17 01:15N 38°33' E 015°42'0 0.4
2017-Oct-17 00:44N 38°33' E 015°42'0 0.4
2017-Oct-17 00:30N 38°33' E 015°42'0 0.4
2017-Oct-16 23:56N 38°33' E 015°42'0 0.3
2017-Oct-16 23:30N 38°33' E 015°42'0 0.4
2017-Oct-16 22:57N 38°33' E 015°43'0 0.4
2017-Oct-16 22:29N 38°33' E 015°43'0 0.4
2017-Oct-16 21:59N 38°33' E 015°43'0 0.5
2017-Oct-16 21:30N 38°33' E 015°43'0 0.4
2017-Oct-16 21:00N 38°33' E 015°43'0 0.5
2017-Oct-16 20:30N 38°33' E 015°43'1 2.8
2017-Oct-16 20:00N 38°33' E 015°41'610.7
2017-Oct-16 19:29N 38°35' E 015°34'511.5
2017-Oct-16 19:00N 38°37' E 015°28'611.5
2017-Oct-16 18:30N 38°39' E 015°21'612.0
2017-Oct-16 18:00N 38°41' E 015°14'612.0
2017-Oct-16 17:30N 38°43' E 015°07'611.7
2017-Oct-16 17:00N 38°44' E 014°59'611.5
2017-Oct-16 16:30N 38°44' E 014°52'611.4
2017-Oct-16 16:00N 38°45' E 014°45'611.4
2017-Oct-16 15:31N 38°45' E 014°37'611.4
2017-Oct-16 15:01N 38°46' E 014°30'611.8
2017-Oct-16 14:30N 38°46' E 014°23'1212.0
2017-Oct-16 13:28N 38°47' E 014°07'612.1
2017-Oct-16 13:01N 38°47' E 013°59'612.2
2017-Oct-16 12:31N 38°48' E 013°52'612.2
2017-Oct-16 12:00N 38°48' E 013°44'612.2
2017-Oct-16 11:31N 38°49' E 013°36'612.0
2017-Oct-16 11:01N 38°50' E 013°28'611.5
2017-Oct-16 10:31N 38°50' E 013°21'611.4
2017-Oct-16 10:01N 38°51' E 013°14'611.4
2017-Oct-16 09:30N 38°51' E 013°06'611.6
2017-Oct-16 09:01N 38°50' E 012°59'611.6
2017-Oct-16 08:31N 38°50' E 012°52'611.7
2017-Oct-16 08:00N 38°49' E 012°44'611.9
2017-Oct-16 07:31N 38°49' E 012°37'611.9
2017-Oct-16 07:01N 38°48' E 012°29'612.2
2017-Oct-16 06:31N 38°48' E 012°21'612.1
2017-Oct-16 06:01N 38°48' E 012°14'1812.0
2017-Oct-16 04:33N 38°47' E 011°51'011.9
2017-Oct-16 04:30N 38°47' E 011°51'612.0
2017-Oct-16 04:01N 38°47' E 011°43'711.8
2017-Oct-16 03:27N 38°46' E 011°34'811.7
2017-Oct-16 02:47N 38°46' E 011°24'1012.0
2017-Oct-16 01:56N 38°46' E 011°11'511.9
2017-Oct-16 01:31N 38°45' E 011°05'712.0
2017-Oct-16 00:55N 38°45' E 010°56'512.0
2017-Oct-16 00:30N 38°45' E 010°49'612.1
2017-Oct-16 00:00N 38°44' E 010°42'712.0
2017-Oct-15 23:25N 38°44' E 010°33'512.2
2017-Oct-15 22:58N 38°44' E 010°26'712.1
2017-Oct-15 22:24N 38°44' E 010°17'6112.1
2017-Oct-15 17:22N 38°41' E 008°59'511.7
2017-Oct-15 16:57N 38°40' E 008°53'611.4
2017-Oct-15 16:24N 38°40' E 008°45'511.4
2017-Oct-15 16:00N 38°40' E 008°39'24811.7
2017-Oct-14 18:55N 38°53' E 003°22'511.7
2017-Oct-14 18:29N 38°53' E 003°15'611.8
2017-Oct-14 17:59N 38°53' E 003°08'711.9
2017-Oct-14 17:26N 38°54' E 002°59'611.8
2017-Oct-14 16:55N 38°55' E 002°52'511.6
2017-Oct-14 16:30N 38°56' E 002°46'611.5
2017-Oct-14 15:59N 38°58' E 002°39'611.5
2017-Oct-14 15:29N 39°00' E 002°32'511.5
2017-Oct-14 15:00N 39°02' E 002°25'611.4
2017-Oct-14 14:29N 39°04' E 002°18'90 2.8
2017-Oct-13 06:49N 38°49' E 000°24'617.6
2017-Oct-13 06:29N 38°43' E 000°28'1117.1
2017-Oct-13 05:49N 38°33' E 000°21'514.4
2017-Oct-13 05:30N 38°30' E 000°17'2214.1
2017-Oct-13 03:58N 38°12' E 000°02'714.1
2017-Oct-13 03:30N 38°06' W 000°02'914.1
2017-Oct-13 02:54N 37°59' W 000°08'614.1
2017-Oct-13 02:29N 37°54' W 000°13'1214.2
2017-Oct-13 01:37N 37°44' W 000°21'214.4
2017-Oct-13 01:30N 37°43' W 000°23'714.2
2017-Oct-13 01:00N 37°37' W 000°28'714.2
2017-Oct-13 00:30N 37°31' W 000°33'714.3
2017-Oct-13 00:00N 37°26' W 000°40'714.2
2017-Oct-12 23:30N 37°21' W 000°46'714.1
2017-Oct-12 23:00N 37°16' W 000°52'713.9
2017-Oct-12 22:30N 37°11' W 000°58'713.8
2017-Oct-12 22:00N 37°07' W 001°05'713.6
2017-Oct-12 21:30N 37°03' W 001°12'713.8
2017-Oct-12 21:00N 36°59' W 001°19'713.9
2017-Oct-12 20:29N 36°54' W 001°26'1113.7
2017-Oct-12 19:41N 36°47' W 001°36'213.5
2017-Oct-12 19:30N 36°45' W 001°38'713.7
2017-Oct-12 19:00N 36°41' W 001°45'714.0
2017-Oct-12 18:30N 36°36' W 001°51'814.6
2017-Oct-12 17:57N 36°31' W 001°58'1014.8
2017-Oct-12 17:18N 36°25' W 002°08'6414.0
2017-Oct-12 12:42N 36°14' W 003°27'313.8
2017-Oct-12 12:27N 36°13' W 003°31'6814.4
2017-Oct-12 07:42N 36°07' W 004°55'314.0
2017-Oct-12 07:27N 36°06' W 004°59'714.2
2017-Oct-12 06:57N 36°05' W 005°08'714.7
2017-Oct-12 06:30N 36°05' W 005°16'612.4
2017-Oct-12 06:00N 36°07' W 005°23'3 6.2
2017-Oct-12 05:30N 36°09' W 005°26'0 0.5
2017-Oct-12 04:58N 36°08' W 005°26'0 0.0
2017-Oct-12 04:28N 36°08' W 005°26'0 0.0
2017-Oct-12 03:58N 36°08' W 005°26'0 0.0
2017-Oct-12 03:28N 36°08' W 005°26'0 0.0
2017-Oct-12 02:58N 36°08' W 005°26'0 0.0
2017-Oct-12 02:28N 36°08' W 005°26'0 0.0
2017-Oct-12 01:58N 36°08' W 005°26'0 0.0
2017-Oct-12 01:28N 36°08' W 005°26'0 0.0
2017-Oct-12 00:58N 36°08' W 005°26'0 0.0
2017-Oct-12 00:28N 36°08' W 005°26'0 0.0
2017-Oct-11 23:58N 36°08' W 005°26'0 0.0
2017-Oct-11 23:28N 36°08' W 005°26'0 0.0
2017-Oct-11 22:58N 36°08' W 005°26'0 0.0
2017-Oct-11 22:28N 36°08' W 005°26'0 0.0
2017-Oct-11 21:58N 36°08' W 005°26'0 0.0
2017-Oct-11 21:28N 36°08' W 005°26'0 0.0
2017-Oct-11 20:58N 36°08' W 005°26'0 0.0
2017-Oct-11 20:28N 36°08' W 005°26'0 0.0
2017-Oct-11 19:58N 36°08' W 005°26'0 0.0
2017-Oct-11 19:28N 36°08' W 005°26'0 0.0
2017-Oct-11 18:58N 36°08' W 005°26'1 1.1
2017-Oct-11 18:30N 36°09' W 005°26'3 6.1
2017-Oct-11 18:00N 36°06' W 005°24'3 5.3
2017-Oct-11 17:30N 36°04' W 005°23'3 5.9
2017-Oct-11 17:01N 36°01' W 005°24'22213.0
2017-Oct-11 00:01N 36°34' W 009°56'714.1
2017-Oct-10 23:30N 36°37' W 010°04'713.9
2017-Oct-10 23:01N 36°39' W 010°12'714.2
2017-Oct-10 22:31N 36°42' W 010°20'714.1
2017-Oct-10 22:01N 36°44' W 010°29'714.3
2017-Oct-10 21:31N 36°46' W 010°37'714.3
2017-Oct-10 21:01N 36°49' W 010°46'714.6
2017-Oct-10 20:31N 36°51' W 010°54'714.4
2017-Oct-10 20:01N 36°53' W 011°03'714.1
2017-Oct-10 19:30N 36°55' W 011°11'713.7
2017-Oct-10 19:00N 36°57' W 011°20'713.5
2017-Oct-10 18:30N 36°59' W 011°28'713.8
2017-Oct-10 18:00N 37°00' W 011°36'713.7
2017-Oct-10 17:30N 37°02' W 011°44'713.8
2017-Oct-10 17:00N 37°04' W 011°53'917.9
2017-Oct-10 16:30N 37°07' W 012°03'918.7
2017-Oct-10 16:00N 37°09' W 012°15'918.5
2017-Oct-10 15:30N 37°12' W 012°26'918.4
2017-Oct-10 15:00N 37°14' W 012°37'1818.5
2017-Oct-10 14:00N 37°20' W 012°59'1018.3
2017-Oct-10 13:29N 37°22' W 013°11'918.1
2017-Oct-10 13:00N 37°25' W 013°21'918.3
2017-Oct-10 12:30N 37°28' W 013°32'918.4
2017-Oct-10 12:00N 37°30' W 013°43'1018.8
2017-Oct-10 11:30N 37°33' W 013°55'918.7
2017-Oct-10 11:00N 37°35' W 014°06'918.5
2017-Oct-10 10:30N 37°38' W 014°17'918.6
2017-Oct-10 10:00N 37°41' W 014°28'918.5
2017-Oct-10 09:30N 37°43' W 014°40'918.4
2017-Oct-10 09:00N 37°46' W 014°51'1018.6
2017-Oct-10 08:29N 37°49' W 015°03'918.7
2017-Oct-10 08:00N 37°52' W 015°14'918.5
2017-Oct-10 07:30N 37°54' W 015°25'918.3
2017-Oct-10 07:00N 37°57' W 015°36'918.3
2017-Oct-10 06:30N 37°59' W 015°47'918.5
2017-Oct-10 06:00N 38°01' W 015°58'918.4
2017-Oct-10 05:30N 38°03' W 016°10'918.5
2017-Oct-10 05:00N 38°06' W 016°21'918.6
2017-Oct-10 04:30N 38°08' W 016°32'918.5
2017-Oct-10 04:00N 38°10' W 016°44'918.5
2017-Oct-10 03:30N 38°12' W 016°55'918.3
2017-Oct-10 03:00N 38°14' W 017°07'918.3
2017-Oct-10 02:30N 38°16' W 017°18'918.6
2017-Oct-10 02:00N 38°18' W 017°30'918.6
2017-Oct-10 01:30N 38°20' W 017°41'918.6
2017-Oct-10 01:00N 38°22' W 017°53'1318.7
2017-Oct-10 00:19N 38°26' W 018°09'618.6
2017-Oct-09 23:59N 38°28' W 018°16'1518.7
2017-Oct-09 23:09N 38°32' W 018°35'1618.7
2017-Oct-09 22:20N 38°35' W 018°55'618.5
2017-Oct-09 22:00N 38°36' W 019°02'1118.5
2017-Oct-09 21:23N 38°39' W 019°16'718.3
2017-Oct-09 21:00N 38°40' W 019°25'1018.5
2017-Oct-09 20:28N 38°43' W 019°37'1018.5
2017-Oct-09 19:55N 38°45' W 019°50'918.7
2017-Oct-09 19:24N 38°47' W 020°02'718.4
2017-Oct-09 19:00N 38°49' W 020°11'  
Track history (hours):
 
Tides and Currents Weather Stations Pressure Air Temp Water Temp Dewpoint Dewpoint Depression Visibility Wind Speed Wind Dir Waves Ship Positions

MSC Kwangyang

Last reported at 2017-Oct-18 22:24 UTC. Time now 2017-Oct-18 22:41 UTC.
Position N 38°27' E 015°54'.

Length 304 m; draft 10.9 m.

Type: Ship (hazmat cat A). MMSI: 636017973.

Date/timePositionNaut miles runAvg speedWind from/ knotsBaromVisibWave heightAir tempDewpointWater temp
2017-Oct-18 22:24N 38°27' E 015°54'0 0.0
2017-Oct-18 21:12N 38°27' E 015°54'0 0.0
2017-Oct-18 21:00N 38°27' E 015°54'0 0.0
2017-Oct-18 20:30N 38°27' E 015°54'0 0.0
2017-Oct-18 20:00N 38°27' E 015°54'0 0.0
2017-Oct-18 18:00N 38°27' E 015°54'0 0.0
2017-Oct-18 17:30N 38°27' E 015°54'0 0.0
2017-Oct-18 17:00N 38°27' E 015°54'0 0.0
2017-Oct-18 16:30N 38°27' E 015°54'0 0.0
2017-Oct-18 15:06N 38°27' E 015°54'0 0.0
2017-Oct-18 15:00N 38°27' E 015°54'0 0.0
2017-Oct-18 12:42N 38°27' E 015°54'0 0.1
2017-Oct-18 12:30N 38°27' E 015°54'1 1.9
2017-Oct-18 11:59N 38°27' E 015°53'2 3.4
2017-Oct-18 11:28N 38°27' E 015°51'0 0.8
2017-Oct-18 11:00N 38°27' E 015°50'4 7.4
2017-Oct-18 10:29N 38°31' E 015°48'2 0.6
2017-Oct-18 07:22N 38°29' E 015°46'1 1.4
2017-Oct-18 06:58N 38°29' E 015°47'2 4.9
2017-Oct-18 06:30N 38°28' E 015°50'3 5.0
2017-Oct-18 05:57N 38°27' E 015°53'2 4.0
2017-Oct-18 05:29N 38°27' E 015°51'0 0.1
2017-Oct-18 05:00N 38°27' E 015°51'0 0.2
2017-Oct-18 04:30N 38°27' E 015°51'1 1.2
2017-Oct-18 04:00N 38°28' E 015°50'3 5.6
2017-Oct-18 03:30N 38°29' E 015°47'0 0.3
2017-Oct-18 03:00N 38°29' E 015°47'0 0.2
2017-Oct-18 02:30N 38°29' E 015°47'1 2.5
2017-Oct-18 02:00N 38°30' E 015°45'5 9.9
2017-Oct-18 01:30N 38°32' E 015°40'3 6.1
2017-Oct-18 01:00N 38°33' E 015°36'0 0.5
2017-Oct-18 00:30N 38°33' E 015°36'0 0.6
2017-Oct-18 00:00N 38°33' E 015°37'0 0.5
2017-Oct-17 23:29N 38°33' E 015°37'0 0.4
2017-Oct-17 23:00N 38°32' E 015°37'0 0.3
2017-Oct-17 22:30N 38°32' E 015°37'0 0.2
2017-Oct-17 22:00N 38°32' E 015°37'0 0.1
2017-Oct-17 21:30N 38°32' E 015°37'0 0.1
2017-Oct-17 20:58N 38°32' E 015°38'0 0.1
2017-Oct-17 20:25N 38°32' E 015°38'0 0.1
2017-Oct-17 20:00N 38°32' E 015°38'0 0.2
2017-Oct-17 19:30N 38°32' E 015°38'0 0.1
2017-Oct-17 19:00N 38°32' E 015°38'0 0.1
2017-Oct-17 18:27N 38°32' E 015°38'0 0.1
2017-Oct-17 18:00N 38°33' E 015°38'0 0.1
2017-Oct-17 17:30N 38°33' E 015°38'0 0.1
2017-Oct-17 16:59N 38°33' E 015°38'0 0.2
2017-Oct-17 16:30N 38°33' E 015°37'0 0.3
2017-Oct-17 16:00N 38°33' E 015°37'0 0.2
2017-Oct-17 15:30N 38°33' E 015°37'0 0.2
2017-Oct-17 14:58N 38°33' E 015°37'0 0.2
2017-Oct-17 14:30N 38°33' E 015°37'0 0.2
2017-Oct-17 14:00N 38°33' E 015°37'0 0.2
2017-Oct-17 13:30N 38°33' E 015°37'0 0.2
2017-Oct-17 12:57N 38°33' E 015°37'0 0.2
2017-Oct-17 12:13N 38°33' E 015°37'0 0.3
2017-Oct-17 11:58N 38°33' E 015°37'0 0.3
2017-Oct-17 11:27N 38°33' E 015°37'0 0.4
2017-Oct-17 10:54N 38°33' E 015°37'0 0.4
2017-Oct-17 10:28N 38°33' E 015°37'0 0.4
2017-Oct-17 09:55N 38°33' E 015°38'0 0.3
2017-Oct-17 09:28N 38°32' E 015°38'0 0.3
2017-Oct-17 09:00N 38°32' E 015°38'0 0.3
2017-Oct-17 08:30N 38°32' E 015°38'0 0.3
2017-Oct-17 07:59N 38°32' E 015°38'0 0.3
2017-Oct-17 07:18N 38°32' E 015°39'0 0.4
2017-Oct-17 06:52N 38°32' E 015°39'0 0.4
2017-Oct-17 06:28N 38°32' E 015°39'0 0.4
2017-Oct-17 06:00N 38°32' E 015°39'0 0.4
2017-Oct-17 05:22N 38°32' E 015°39'0 0.4
2017-Oct-17 04:52N 38°32' E 015°40'0 0.4
2017-Oct-17 04:23N 38°32' E 015°40'0 0.5
2017-Oct-17 04:00N 38°33' E 015°40'0 0.5
2017-Oct-17 03:30N 38°33' E 015°41'0 0.5
2017-Oct-17 02:55N 38°33' E 015°41'0 0.4
2017-Oct-17 02:26N 38°33' E 015°41'0 0.4
2017-Oct-17 01:56N 38°33' E 015°41'0 0.3
2017-Oct-17 01:15N 38°33' E 015°42'0 0.4
2017-Oct-17 00:44N 38°33' E 015°42'0 0.4
2017-Oct-17 00:30N 38°33' E 015°42'0 0.4
2017-Oct-16 23:56N 38°33' E 015°42'0 0.3
2017-Oct-16 23:30N 38°33' E 015°42'0 0.4
2017-Oct-16 22:57N 38°33' E 015°43'0 0.4
2017-Oct-16 22:29N 38°33' E 015°43'0 0.4
2017-Oct-16 21:59N 38°33' E 015°43'0 0.5
2017-Oct-16 21:30N 38°33' E 015°43'0 0.4
2017-Oct-16 21:00N 38°33' E 015°43'0 0.5
2017-Oct-16 20:30N 38°33' E 015°43'1 2.8
2017-Oct-16 20:00N 38°33' E 015°41'610.7
2017-Oct-16 19:29N 38°35' E 015°34'511.5
2017-Oct-16 19:00N 38°37' E 015°28'611.5
2017-Oct-16 18:30N 38°39' E 015°21'612.0
2017-Oct-16 18:00N 38°41' E 015°14'612.0
2017-Oct-16 17:30N 38°43' E 015°07'611.7
2017-Oct-16 17:00N 38°44' E 014°59'611.5
2017-Oct-16 16:30N 38°44' E 014°52'611.4
2017-Oct-16 16:00N 38°45' E 014°45'611.4
2017-Oct-16 15:31N 38°45' E 014°37'611.4
2017-Oct-16 15:01N 38°46' E 014°30'611.8
2017-Oct-16 14:30N 38°46' E 014°23'1212.0
2017-Oct-16 13:28N 38°47' E 014°07'612.1
2017-Oct-16 13:01N 38°47' E 013°59'612.2
2017-Oct-16 12:31N 38°48' E 013°52'612.2
2017-Oct-16 12:00N 38°48' E 013°44'612.2
2017-Oct-16 11:31N 38°49' E 013°36'612.0
2017-Oct-16 11:01N 38°50' E 013°28'611.5
2017-Oct-16 10:31N 38°50' E 013°21'611.4
2017-Oct-16 10:01N 38°51' E 013°14'611.4
2017-Oct-16 09:30N 38°51' E 013°06'611.6
2017-Oct-16 09:01N 38°50' E 012°59'611.6
2017-Oct-16 08:31N 38°50' E 012°52'611.7
2017-Oct-16 08:00N 38°49' E 012°44'611.9
2017-Oct-16 07:31N 38°49' E 012°37'611.9
2017-Oct-16 07:01N 38°48' E 012°29'612.2
2017-Oct-16 06:31N 38°48' E 012°21'612.1
2017-Oct-16 06:01N 38°48' E 012°14'1812.0
2017-Oct-16 04:33N 38°47' E 011°51'011.9
2017-Oct-16 04:30N 38°47' E 011°51'612.0
2017-Oct-16 04:01N 38°47' E 011°43'711.8
2017-Oct-16 03:27N 38°46' E 011°34'811.7
2017-Oct-16 02:47N 38°46' E 011°24'1012.0
2017-Oct-16 01:56N 38°46' E 011°11'511.9
2017-Oct-16 01:31N 38°45' E 011°05'712.0
2017-Oct-16 00:55N 38°45' E 010°56'512.0
2017-Oct-16 00:30N 38°45' E 010°49'612.1
2017-Oct-16 00:00N 38°44' E 010°42'712.0
2017-Oct-15 23:25N 38°44' E 010°33'512.2
2017-Oct-15 22:58N 38°44' E 010°26'712.1
2017-Oct-15 22:24N 38°44' E 010°17'6112.1
2017-Oct-15 17:22N 38°41' E 008°59'511.7
2017-Oct-15 16:57N 38°40' E 008°53'611.4
2017-Oct-15 16:24N 38°40' E 008°45'511.4
2017-Oct-15 16:00N 38°40' E 008°39'24811.7
2017-Oct-14 18:55N 38°53' E 003°22'511.7
2017-Oct-14 18:29N 38°53' E 003°15'611.8
2017-Oct-14 17:59N 38°53' E 003°08'711.9
2017-Oct-14 17:26N 38°54' E 002°59'611.8
2017-Oct-14 16:55N 38°55' E 002°52'511.6
2017-Oct-14 16:30N 38°56' E 002°46'611.5
2017-Oct-14 15:59N 38°58' E 002°39'611.5
2017-Oct-14 15:29N 39°00' E 002°32'511.5
2017-Oct-14 15:00N 39°02' E 002°25'611.4
2017-Oct-14 14:29N 39°04' E 002°18'90 2.8
2017-Oct-13 06:49N 38°49' E 000°24'617.6
2017-Oct-13 06:29N 38°43' E 000°28'1117.1
2017-Oct-13 05:49N 38°33' E 000°21'514.4
2017-Oct-13 05:30N 38°30' E 000°17'2214.1
2017-Oct-13 03:58N 38°12' E 000°02'714.1
2017-Oct-13 03:30N 38°06' W 000°02'914.1
2017-Oct-13 02:54N 37°59' W 000°08'614.1
2017-Oct-13 02:29N 37°54' W 000°13'1214.2
2017-Oct-13 01:37N 37°44' W 000°21'214.4
2017-Oct-13 01:30N 37°43' W 000°23'714.2
2017-Oct-13 01:00N 37°37' W 000°28'714.2
2017-Oct-13 00:30N 37°31' W 000°33'714.3
2017-Oct-13 00:00N 37°26' W 000°40'714.2
2017-Oct-12 23:30N 37°21' W 000°46'714.1
2017-Oct-12 23:00N 37°16' W 000°52'713.9
2017-Oct-12 22:30N 37°11' W 000°58'713.8
2017-Oct-12 22:00N 37°07' W 001°05'713.6
2017-Oct-12 21:30N 37°03' W 001°12'713.8
2017-Oct-12 21:00N 36°59' W 001°19'713.9
2017-Oct-12 20:29N 36°54' W 001°26'1113.7
2017-Oct-12 19:41N 36°47' W 001°36'213.5
2017-Oct-12 19:30N 36°45' W 001°38'713.7
2017-Oct-12 19:00N 36°41' W 001°45'714.0
2017-Oct-12 18:30N 36°36' W 001°51'814.6
2017-Oct-12 17:57N 36°31' W 001°58'1014.8
2017-Oct-12 17:18N 36°25' W 002°08'6414.0
2017-Oct-12 12:42N 36°14' W 003°27'313.8
2017-Oct-12 12:27N 36°13' W 003°31'6814.4
2017-Oct-12 07:42N 36°07' W 004°55'314.0
2017-Oct-12 07:27N 36°06' W 004°59'714.2
2017-Oct-12 06:57N 36°05' W 005°08'714.7
2017-Oct-12 06:30N 36°05' W 005°16'612.4
2017-Oct-12 06:00N 36°07' W 005°23'3 6.2
2017-Oct-12 05:30N 36°09' W 005°26'0 0.5
2017-Oct-12 04:58N 36°08' W 005°26'0 0.0
2017-Oct-12 04:28N 36°08' W 005°26'0 0.0
2017-Oct-12 03:58N 36°08' W 005°26'0 0.0
2017-Oct-12 03:28N 36°08' W 005°26'0 0.0
2017-Oct-12 02:58N 36°08' W 005°26'0 0.0
2017-Oct-12 02:28N 36°08' W 005°26'0 0.0
2017-Oct-12 01:58N 36°08' W 005°26'0 0.0
2017-Oct-12 01:28N 36°08' W 005°26'0 0.0
2017-Oct-12 00:58N 36°08' W 005°26'0 0.0
2017-Oct-12 00:28N 36°08' W 005°26'0 0.0
2017-Oct-11 23:58N 36°08' W 005°26'0 0.0
2017-Oct-11 23:28N 36°08' W 005°26'0 0.0
2017-Oct-11 22:58N 36°08' W 005°26'0 0.0
2017-Oct-11 22:28N 36°08' W 005°26'0 0.0
2017-Oct-11 21:58N 36°08' W 005°26'0 0.0
2017-Oct-11 21:28N 36°08' W 005°26'0 0.0
2017-Oct-11 20:58N 36°08' W 005°26'0 0.0
2017-Oct-11 20:28N 36°08' W 005°26'0 0.0
2017-Oct-11 19:58N 36°08' W 005°26'0 0.0
2017-Oct-11 19:28N 36°08' W 005°26'0 0.0
2017-Oct-11 18:58N 36°08' W 005°26'1 1.1
2017-Oct-11 18:30N 36°09' W 005°26'3 6.1
2017-Oct-11 18:00N 36°06' W 005°24'3 5.3
2017-Oct-11 17:30N 36°04' W 005°23'3 5.9
2017-Oct-11 17:01N 36°01' W 005°24'22213.0
2017-Oct-11 00:01N 36°34' W 009°56'714.1
2017-Oct-10 23:30N 36°37' W 010°04'713.9
2017-Oct-10 23:01N 36°39' W 010°12'714.2
2017-Oct-10 22:31N 36°42' W 010°20'714.1
2017-Oct-10 22:01N 36°44' W 010°29'714.3
2017-Oct-10 21:31N 36°46' W 010°37'714.3
2017-Oct-10 21:01N 36°49' W 010°46'714.6
2017-Oct-10 20:31N 36°51' W 010°54'714.4
2017-Oct-10 20:01N 36°53' W 011°03'714.1
2017-Oct-10 19:30N 36°55' W 011°11'713.7
2017-Oct-10 19:00N 36°57' W 011°20'713.5
2017-Oct-10 18:30N 36°59' W 011°28'713.8
2017-Oct-10 18:00N 37°00' W 011°36'713.7
2017-Oct-10 17:30N 37°02' W 011°44'713.8
2017-Oct-10 17:00N 37°04' W 011°53'917.9
2017-Oct-10 16:30N 37°07' W 012°03'918.7
2017-Oct-10 16:00N 37°09' W 012°15'918.5
2017-Oct-10 15:30N 37°12' W 012°26'918.4
2017-Oct-10 15:00N 37°14' W 012°37'1818.5
2017-Oct-10 14:00N 37°20' W 012°59'1018.3
2017-Oct-10 13:29N 37°22' W 013°11'918.1
2017-Oct-10 13:00N 37°25' W 013°21'918.3
2017-Oct-10 12:30N 37°28' W 013°32'918.4
2017-Oct-10 12:00N 37°30' W 013°43'1018.8
2017-Oct-10 11:30N 37°33' W 013°55'918.7
2017-Oct-10 11:00N 37°35' W 014°06'918.5
2017-Oct-10 10:30N 37°38' W 014°17'918.6
2017-Oct-10 10:00N 37°41' W 014°28'918.5
2017-Oct-10 09:30N 37°43' W 014°40'918.4
2017-Oct-10 09:00N 37°46' W 014°51'1018.6
2017-Oct-10 08:29N 37°49' W 015°03'918.7
2017-Oct-10 08:00N 37°52' W 015°14'918.5
2017-Oct-10 07:30N 37°54' W 015°25'918.3
2017-Oct-10 07:00N 37°57' W 015°36'918.3
2017-Oct-10 06:30N 37°59' W 015°47'918.5
2017-Oct-10 06:00N 38°01' W 015°58'918.4
2017-Oct-10 05:30N 38°03' W 016°10'918.5
2017-Oct-10 05:00N 38°06' W 016°21'918.6
2017-Oct-10 04:30N 38°08' W 016°32'918.5
2017-Oct-10 04:00N 38°10' W 016°44'918.5
2017-Oct-10 03:30N 38°12' W 016°55'918.3
2017-Oct-10 03:00N 38°14' W 017°07'918.3
2017-Oct-10 02:30N 38°16' W 017°18'918.6
2017-Oct-10 02:00N 38°18' W 017°30'918.6
2017-Oct-10 01:30N 38°20' W 017°41'918.6
2017-Oct-10 01:00N 38°22' W 017°53'1318.7
2017-Oct-10 00:19N 38°26' W 018°09'618.6
2017-Oct-09 23:59N 38°28' W 018°16'1518.7
2017-Oct-09 23:09N 38°32' W 018°35'1618.7
2017-Oct-09 22:20N 38°35' W 018°55'618.5
2017-Oct-09 22:00N 38°36' W 019°02'1118.5
2017-Oct-09 21:23N 38°39' W 019°16'718.3
2017-Oct-09 21:00N 38°40' W 019°25'1018.5
2017-Oct-09 20:28N 38°43' W 019°37'1018.5
2017-Oct-09 19:55N 38°45' W 019°50'918.7
2017-Oct-09 19:24N 38°47' W 020°02'718.4
2017-Oct-09 19:00N 38°49' W 020°11'  

Dump ship's entire track history